sensor_id;sensor_type;location;lat;lon;timestamp;temperature;humidity
41060;DHT22;26811;53.160;8.202;2023-05-07T00:02:57;10.90;99.90
41060;DHT22;26811;53.160;8.202;2023-05-07T00:07:57;10.90;99.90
41060;DHT22;26811;53.160;8.202;2023-05-07T00:12:58;10.90;99.90
41060;DHT22;26811;53.160;8.202;2023-05-07T00:17:59;10.90;99.90
41060;DHT22;26811;53.160;8.202;2023-05-07T00:22:59;10.80;99.90
41060;DHT22;26811;53.160;8.202;2023-05-07T00:28:00;10.80;99.90
41060;DHT22;26811;53.160;8.202;2023-05-07T00:33:03;10.70;99.90
41060;DHT22;26811;53.160;8.202;2023-05-07T00:38:04;10.70;99.90
41060;DHT22;26811;53.160;8.202;2023-05-07T00:43:06;10.70;99.90
41060;DHT22;26811;53.160;8.202;2023-05-07T00:48:07;10.60;99.90
41060;DHT22;26811;53.160;8.202;2023-05-07T00:53:07;10.50;99.90
41060;DHT22;26811;53.160;8.202;2023-05-07T00:58:08;10.40;99.90
41060;DHT22;26811;53.160;8.202;2023-05-07T01:03:08;10.30;99.90
41060;DHT22;26811;53.160;8.202;2023-05-07T01:08:10;10.30;99.90
41060;DHT22;26811;53.160;8.202;2023-05-07T01:13:12;10.20;99.90
41060;DHT22;26811;53.160;8.202;2023-05-07T01:18:14;10.20;99.90
41060;DHT22;26811;53.160;8.202;2023-05-07T01:23:18;10.10;99.90
41060;DHT22;26811;53.160;8.202;2023-05-07T01:28:19;10.00;99.90
41060;DHT22;26811;53.160;8.202;2023-05-07T01:33:21;10.00;99.90
41060;DHT22;26811;53.160;8.202;2023-05-07T01:38:22;10.00;99.90
41060;DHT22;26811;53.160;8.202;2023-05-07T01:43:23;10.00;99.90
41060;DHT22;26811;53.160;8.202;2023-05-07T01:48:24;10.00;99.90
41060;DHT22;26811;53.160;8.202;2023-05-07T01:53:27;10.00;99.90
41060;DHT22;26811;53.160;8.202;2023-05-07T01:58:28;10.00;99.90
41060;DHT22;26811;53.160;8.202;2023-05-07T02:03:28;9.90;99.90
41060;DHT22;26811;53.160;8.202;2023-05-07T02:08:29;9.90;99.90
41060;DHT22;26811;53.160;8.202;2023-05-07T02:13:32;9.90;99.90
41060;DHT22;26811;53.160;8.202;2023-05-07T02:18:33;9.90;99.90
41060;DHT22;26811;53.160;8.202;2023-05-07T02:23:34;9.90;99.90
41060;DHT22;26811;53.160;8.202;2023-05-07T02:28:34;9.90;99.90
41060;DHT22;26811;53.160;8.202;2023-05-07T02:33:35;9.80;99.90
41060;DHT22;26811;53.160;8.202;2023-05-07T02:38:36;9.70;99.90
41060;DHT22;26811;53.160;8.202;2023-05-07T02:43:37;9.60;99.90
41060;DHT22;26811;53.160;8.202;2023-05-07T02:48:38;9.70;99.90
41060;DHT22;26811;53.160;8.202;2023-05-07T02:53:38;9.60;99.90
41060;DHT22;26811;53.160;8.202;2023-05-07T02:58:39;9.60;99.90
41060;DHT22;26811;53.160;8.202;2023-05-07T03:03:40;9.60;99.90
41060;DHT22;26811;53.160;8.202;2023-05-07T03:08:40;9.50;99.90
41060;DHT22;26811;53.160;8.202;2023-05-07T03:13:41;9.50;99.90
41060;DHT22;26811;53.160;8.202;2023-05-07T03:18:41;9.50;99.90
41060;DHT22;26811;53.160;8.202;2023-05-07T03:23:42;9.50;99.90
41060;DHT22;26811;53.160;8.202;2023-05-07T03:28:42;9.40;99.90
41060;DHT22;26811;53.160;8.202;2023-05-07T03:33:57;9.40;99.90
41060;DHT22;26811;53.160;8.202;2023-05-07T03:38:57;9.50;99.90
41060;DHT22;26811;53.160;8.202;2023-05-07T03:43:58;9.50;99.90
41060;DHT22;26811;53.160;8.202;2023-05-07T03:49:01;9.40;99.90
41060;DHT22;26811;53.160;8.202;2023-05-07T03:54:02;9.40;99.90
41060;DHT22;26811;53.160;8.202;2023-05-07T03:59:02;9.40;99.90
41060;DHT22;26811;53.160;8.202;2023-05-07T04:04:03;9.40;99.90
41060;DHT22;26811;53.160;8.202;2023-05-07T04:09:04;9.30;99.90
41060;DHT22;26811;53.160;8.202;2023-05-07T04:14:05;9.30;99.90
41060;DHT22;26811;53.160;8.202;2023-05-07T04:19:08;9.30;99.90
41060;DHT22;26811;53.160;8.202;2023-05-07T04:24:08;9.30;99.90
41060;DHT22;26811;53.160;8.202;2023-05-07T04:29:09;9.30;99.90
41060;DHT22;26811;53.160;8.202;2023-05-07T04:34:10;9.30;99.90
41060;DHT22;26811;53.160;8.202;2023-05-07T04:39:11;9.30;99.90
41060;DHT22;26811;53.160;8.202;2023-05-07T04:44:12;9.40;99.90
41060;DHT22;26811;53.160;8.202;2023-05-07T04:49:13;9.40;99.90
41060;DHT22;26811;53.160;8.202;2023-05-07T04:54:13;9.40;99.90
41060;DHT22;26811;53.160;8.202;2023-05-07T04:59:14;9.40;99.90
41060;DHT22;26811;53.160;8.202;2023-05-07T05:04:14;9.40;99.90
41060;DHT22;26811;53.160;8.202;2023-05-07T05:09:15;9.50;99.90
41060;DHT22;26811;53.160;8.202;2023-05-07T05:14:16;9.60;99.90
41060;DHT22;26811;53.160;8.202;2023-05-07T05:19:16;9.60;99.90
41060;DHT22;26811;53.160;8.202;2023-05-07T05:24:17;9.60;99.90
41060;DHT22;26811;53.160;8.202;2023-05-07T05:29:18;9.50;99.90
41060;DHT22;26811;53.160;8.202;2023-05-07T05:34:18;9.50;99.90
41060;DHT22;26811;53.160;8.202;2023-05-07T05:39:20;9.50;99.90
41060;DHT22;26811;53.160;8.202;2023-05-07T05:44:21;9.40;99.90
41060;DHT22;26811;53.160;8.202;2023-05-07T05:49:22;9.40;99.90
41060;DHT22;26811;53.160;8.202;2023-05-07T05:54:23;9.40;99.90
41060;DHT22;26811;53.160;8.202;2023-05-07T05:59:23;9.40;99.90
41060;DHT22;26811;53.160;8.202;2023-05-07T06:04:24;9.50;99.90
41060;DHT22;26811;53.160;8.202;2023-05-07T06:09:25;9.50;99.90
41060;DHT22;26811;53.160;8.202;2023-05-07T06:14:25;9.60;99.90
41060;DHT22;26811;53.160;8.202;2023-05-07T06:19:26;9.50;99.90
41060;DHT22;26811;53.160;8.202;2023-05-07T06:24:28;9.60;99.90
41060;DHT22;26811;53.160;8.202;2023-05-07T06:29:29;9.50;99.90
41060;DHT22;26811;53.160;8.202;2023-05-07T06:34:31;9.50;99.90
41060;DHT22;26811;53.160;8.202;2023-05-07T06:39:32;9.50;99.90
41060;DHT22;26811;53.160;8.202;2023-05-07T06:44:33;9.50;99.90
41060;DHT22;26811;53.160;8.202;2023-05-07T06:49:34;9.40;99.90
41060;DHT22;26811;53.160;8.202;2023-05-07T06:54:34;9.50;99.90
41060;DHT22;26811;53.160;8.202;2023-05-07T06:59:35;9.50;99.90
41060;DHT22;26811;53.160;8.202;2023-05-07T07:04:35;9.50;99.90
41060;DHT22;26811;53.160;8.202;2023-05-07T07:09:36;9.60;99.90
41060;DHT22;26811;53.160;8.202;2023-05-07T07:14:38;9.70;99.90
41060;DHT22;26811;53.160;8.202;2023-05-07T07:19:38;9.80;99.90
41060;DHT22;26811;53.160;8.202;2023-05-07T07:24:39;9.80;99.90
41060;DHT22;26811;53.160;8.202;2023-05-07T07:29:40;9.90;99.90
41060;DHT22;26811;53.160;8.202;2023-05-07T07:34:41;10.00;99.90
41060;DHT22;26811;53.160;8.202;2023-05-07T07:39:41;10.00;99.90
41060;DHT22;26811;53.160;8.202;2023-05-07T07:44:42;10.10;99.90
41060;DHT22;26811;53.160;8.202;2023-05-07T07:49:42;10.10;99.90
41060;DHT22;26811;53.160;8.202;2023-05-07T07:54:43;10.20;99.90
41060;DHT22;26811;53.160;8.202;2023-05-07T07:59:44;10.30;99.90
41060;DHT22;26811;53.160;8.202;2023-05-07T08:04:45;10.40;99.90
41060;DHT22;26811;53.160;8.202;2023-05-07T08:09:45;10.50;99.90
41060;DHT22;26811;53.160;8.202;2023-05-07T08:14:46;10.50;99.90
41060;DHT22;26811;53.160;8.202;2023-05-07T08:19:47;10.50;99.90
41060;DHT22;26811;53.160;8.202;2023-05-07T08:24:47;10.40;99.90
41060;DHT22;26811;53.160;8.202;2023-05-07T08:29:48;10.40;99.90
41060;DHT22;26811;53.160;8.202;2023-05-07T08:34:49;10.40;99.90
41060;DHT22;26811;53.160;8.202;2023-05-07T08:39:49;10.50;99.90
41060;DHT22;26811;53.160;8.202;2023-05-07T08:44:51;10.60;99.90
41060;DHT22;26811;53.160;8.202;2023-05-07T08:49:54;10.80;99.90
41060;DHT22;26811;53.160;8.202;2023-05-07T08:54:56;10.90;99.90
41060;DHT22;26811;53.160;8.202;2023-05-07T08:59:56;10.90;99.90
41060;DHT22;26811;53.160;8.202;2023-05-07T09:04:57;11.00;99.90
41060;DHT22;26811;53.160;8.202;2023-05-07T09:09:58;11.20;99.90
41060;DHT22;26811;53.160;8.202;2023-05-07T09:14:59;11.40;99.90
41060;DHT22;26811;53.160;8.202;2023-05-07T09:20:04;11.60;99.90
41060;DHT22;26811;53.160;8.202;2023-05-07T09:25:08;11.80;99.90
41060;DHT22;26811;53.160;8.202;2023-05-07T09:30:10;12.00;99.90
41060;DHT22;26811;53.160;8.202;2023-05-07T09:35:17;12.20;99.90
41060;DHT22;26811;53.160;8.202;2023-05-07T09:40:29;12.40;99.90
41060;DHT22;26811;53.160;8.202;2023-05-07T09:45:30;12.60;99.90
41060;DHT22;26811;53.160;8.202;2023-05-07T09:50:48;13.10;99.90
41060;DHT22;26811;53.160;8.202;2023-05-07T09:55:51;13.00;99.90
41060;DHT22;26811;53.160;8.202;2023-05-07T10:00:52;12.80;99.90
41060;DHT22;26811;53.160;8.202;2023-05-07T10:05:53;13.00;99.90
41060;DHT22;26811;53.160;8.202;2023-05-07T10:10:54;13.50;99.90
41060;DHT22;26811;53.160;8.202;2023-05-07T10:15:55;13.70;99.90
41060;DHT22;26811;53.160;8.202;2023-05-07T10:21:10;14.40;99.90
41060;DHT22;26811;53.160;8.202;2023-05-07T10:26:12;14.30;99.90
41060;DHT22;26811;53.160;8.202;2023-05-07T10:36:35;14.20;99.90
41060;DHT22;26811;53.160;8.202;2023-05-07T10:41:36;14.10;99.90
41060;DHT22;26811;53.160;8.202;2023-05-07T10:46:37;14.30;99.90
41060;DHT22;26811;53.160;8.202;2023-05-07T10:51:38;14.30;99.90
41060;DHT22;26811;53.160;8.202;2023-05-07T10:56:42;14.30;99.90
41060;DHT22;26811;53.160;8.202;2023-05-07T11:01:58;14.40;99.90
41060;DHT22;26811;53.160;8.202;2023-05-07T11:07:26;14.50;99.90
41060;DHT22;26811;53.160;8.202;2023-05-07T11:17:58;15.20;99.90
41060;DHT22;26811;53.160;8.202;2023-05-07T11:22:58;15.30;99.90
41060;DHT22;26811;53.160;8.202;2023-05-07T11:28:08;15.50;99.90
41060;DHT22;26811;53.160;8.202;2023-05-07T11:33:17;16.10;99.90
41060;DHT22;26811;53.160;8.202;2023-05-07T11:38:18;15.50;99.90
41060;DHT22;26811;53.160;8.202;2023-05-07T11:43:19;15.20;99.90
41060;DHT22;26811;53.160;8.202;2023-05-07T11:48:21;15.40;99.90
41060;DHT22;26811;53.160;8.202;2023-05-07T11:53:25;15.10;99.90
41060;DHT22;26811;53.160;8.202;2023-05-07T11:58:26;14.70;99.90
41060;DHT22;26811;53.160;8.202;2023-05-07T12:03:26;14.50;99.90
41060;DHT22;26811;53.160;8.202;2023-05-07T12:08:27;14.70;99.90
41060;DHT22;26811;53.160;8.202;2023-05-07T12:13:28;14.90;99.90
41060;DHT22;26811;53.160;8.202;2023-05-07T12:18:28;15.30;99.90
41060;DHT22;26811;53.160;8.202;2023-05-07T12:23:30;15.40;99.90
41060;DHT22;26811;53.160;8.202;2023-05-07T12:28:32;15.40;99.90
41060;DHT22;26811;53.160;8.202;2023-05-07T12:33:36;15.20;99.90
41060;DHT22;26811;53.160;8.202;2023-05-07T12:38:39;15.30;99.90
41060;DHT22;26811;53.160;8.202;2023-05-07T12:43:43;14.80;99.90
41060;DHT22;26811;53.160;8.202;2023-05-07T12:48:44;15.00;99.90
41060;DHT22;26811;53.160;8.202;2023-05-07T12:53:46;14.70;99.90
41060;DHT22;26811;53.160;8.202;2023-05-07T12:58:48;14.80;99.90
41060;DHT22;26811;53.160;8.202;2023-05-07T13:03:49;15.30;99.90
41060;DHT22;26811;53.160;8.202;2023-05-07T13:08:53;15.80;99.90
41060;DHT22;26811;53.160;8.202;2023-05-07T13:13:53;16.00;99.90
41060;DHT22;26811;53.160;8.202;2023-05-07T13:18:54;16.20;99.90
41060;DHT22;26811;53.160;8.202;2023-05-07T13:23:57;16.20;99.90
41060;DHT22;26811;53.160;8.202;2023-05-07T13:28:58;16.10;99.90
41060;DHT22;26811;53.160;8.202;2023-05-07T13:33:58;16.20;99.90
41060;DHT22;26811;53.160;8.202;2023-05-07T13:38:59;16.20;99.90
41060;DHT22;26811;53.160;8.202;2023-05-07T13:44:00;16.40;99.90
41060;DHT22;26811;53.160;8.202;2023-05-07T13:49:01;16.40;99.90
41060;DHT22;26811;53.160;8.202;2023-05-07T13:54:01;16.60;99.90
41060;DHT22;26811;53.160;8.202;2023-05-07T13:59:02;16.90;99.90
41060;DHT22;26811;53.160;8.202;2023-05-07T14:04:03;17.00;99.90
41060;DHT22;26811;53.160;8.202;2023-05-07T14:09:03;16.90;99.90
41060;DHT22;26811;53.160;8.202;2023-05-07T14:14:04;16.80;99.90
41060;DHT22;26811;53.160;8.202;2023-05-07T14:19:04;16.70;99.90
41060;DHT22;26811;53.160;8.202;2023-05-07T14:24:06;16.60;99.90
41060;DHT22;26811;53.160;8.202;2023-05-07T14:29:10;16.90;99.90
41060;DHT22;26811;53.160;8.202;2023-05-07T14:34:11;17.10;99.90
41060;DHT22;26811;53.160;8.202;2023-05-07T14:39:11;17.10;99.90
41060;DHT22;26811;53.160;8.202;2023-05-07T14:50:08;16.80;99.90
41060;DHT22;26811;53.160;8.202;2023-05-07T14:55:12;16.80;99.90
41060;DHT22;26811;53.160;8.202;2023-05-07T15:00:13;16.90;99.90
41060;DHT22;26811;53.160;8.202;2023-05-07T15:05:16;16.80;99.90
41060;DHT22;26811;53.160;8.202;2023-05-07T15:10:20;16.80;99.90
41060;DHT22;26811;53.160;8.202;2023-05-07T15:21:19;17.10;99.90
41060;DHT22;26811;53.160;8.202;2023-05-07T15:26:20;17.20;99.90
41060;DHT22;26811;53.160;8.202;2023-05-07T15:31:21;17.10;99.90
41060;DHT22;26811;53.160;8.202;2023-05-07T15:36:21;17.00;99.90
41060;DHT22;26811;53.160;8.202;2023-05-07T15:41:22;17.10;99.90
41060;DHT22;26811;53.160;8.202;2023-05-07T15:46:24;17.10;99.90
41060;DHT22;26811;53.160;8.202;2023-05-07T15:51:25;17.10;99.90
41060;DHT22;26811;53.160;8.202;2023-05-07T15:56:29;17.10;99.90
41060;DHT22;26811;53.160;8.202;2023-05-07T16:01:32;17.20;99.90
41060;DHT22;26811;53.160;8.202;2023-05-07T16:06:33;17.10;99.90
41060;DHT22;26811;53.160;8.202;2023-05-07T16:11:34;16.80;99.90
41060;DHT22;26811;53.160;8.202;2023-05-07T16:16:35;16.50;99.90
41060;DHT22;26811;53.160;8.202;2023-05-07T16:21:43;16.30;99.90
41060;DHT22;26811;53.160;8.202;2023-05-07T16:26:53;16.20;99.90
41060;DHT22;26811;53.160;8.202;2023-05-07T16:32:07;16.30;99.90
41060;DHT22;26811;53.160;8.202;2023-05-07T16:37:08;16.20;99.90
41060;DHT22;26811;53.160;8.202;2023-05-07T16:42:08;16.00;99.90
41060;DHT22;26811;53.160;8.202;2023-05-07T16:47:12;16.10;99.90
41060;DHT22;26811;53.160;8.202;2023-05-07T16:52:18;16.10;99.90
41060;DHT22;26811;53.160;8.202;2023-05-07T16:57:18;16.00;99.90
41060;DHT22;26811;53.160;8.202;2023-05-07T17:02:19;15.70;99.90
41060;DHT22;26811;53.160;8.202;2023-05-07T17:07:19;15.60;99.90
41060;DHT22;26811;53.160;8.202;2023-05-07T17:12:20;15.50;99.90
41060;DHT22;26811;53.160;8.202;2023-05-07T17:17:21;15.40;99.90
41060;DHT22;26811;53.160;8.202;2023-05-07T17:22:22;15.30;99.90
41060;DHT22;26811;53.160;8.202;2023-05-07T17:27:24;15.20;99.90
41060;DHT22;26811;53.160;8.202;2023-05-07T17:32:25;15.10;99.90
41060;DHT22;26811;53.160;8.202;2023-05-07T17:37:32;15.10;99.90
41060;DHT22;26811;53.160;8.202;2023-05-07T17:42:32;15.10;99.90
41060;DHT22;26811;53.160;8.202;2023-05-07T17:47:33;15.10;99.90
41060;DHT22;26811;53.160;8.202;2023-05-07T17:52:35;15.00;99.90
41060;DHT22;26811;53.160;8.202;2023-05-07T17:57:36;14.90;99.90
41060;DHT22;26811;53.160;8.202;2023-05-07T18:02:36;14.90;99.90
41060;DHT22;26811;53.160;8.202;2023-05-07T18:07:37;14.90;99.90
41060;DHT22;26811;53.160;8.202;2023-05-07T18:12:38;14.80;99.90
41060;DHT22;26811;53.160;8.202;2023-05-07T18:17:39;14.80;99.90
41060;DHT22;26811;53.160;8.202;2023-05-07T18:22:39;14.60;99.90
41060;DHT22;26811;53.160;8.202;2023-05-07T18:27:40;14.50;99.90
41060;DHT22;26811;53.160;8.202;2023-05-07T18:32:41;14.50;99.90
41060;DHT22;26811;53.160;8.202;2023-05-07T18:37:41;14.40;99.90
41060;DHT22;26811;53.160;8.202;2023-05-07T18:42:42;14.30;99.90
41060;DHT22;26811;53.160;8.202;2023-05-07T18:47:42;14.30;99.90
41060;DHT22;26811;53.160;8.202;2023-05-07T18:52:43;14.20;99.90
41060;DHT22;26811;53.160;8.202;2023-05-07T18:57:43;14.20;99.90
41060;DHT22;26811;53.160;8.202;2023-05-07T19:02:44;14.00;99.90
41060;DHT22;26811;53.160;8.202;2023-05-07T19:07:44;14.00;99.90
41060;DHT22;26811;53.160;8.202;2023-05-07T19:12:46;13.90;99.90
41060;DHT22;26811;53.160;8.202;2023-05-07T19:17:46;13.90;99.90
41060;DHT22;26811;53.160;8.202;2023-05-07T19:22:47;13.80;99.90
41060;DHT22;26811;53.160;8.202;2023-05-07T19:27:48;13.80;99.90
41060;DHT22;26811;53.160;8.202;2023-05-07T19:32:50;13.70;99.90
41060;DHT22;26811;53.160;8.202;2023-05-07T19:37:50;13.70;99.90
41060;DHT22;26811;53.160;8.202;2023-05-07T19:42:51;13.60;99.90
41060;DHT22;26811;53.160;8.202;2023-05-07T19:47:51;13.60;99.90
41060;DHT22;26811;53.160;8.202;2023-05-07T19:52:52;13.50;99.90
41060;DHT22;26811;53.160;8.202;2023-05-07T19:57:52;13.50;99.90
41060;DHT22;26811;53.160;8.202;2023-05-07T20:02:53;13.40;99.90
41060;DHT22;26811;53.160;8.202;2023-05-07T20:07:54;13.30;99.90
41060;DHT22;26811;53.160;8.202;2023-05-07T20:12:54;13.20;99.90
41060;DHT22;26811;53.160;8.202;2023-05-07T20:17:55;13.20;99.90
41060;DHT22;26811;53.160;8.202;2023-05-07T20:22:55;13.10;99.90
41060;DHT22;26811;53.160;8.202;2023-05-07T20:27:56;13.10;99.90
41060;DHT22;26811;53.160;8.202;2023-05-07T20:32:56;13.10;99.90
41060;DHT22;26811;53.160;8.202;2023-05-07T20:37:57;13.00;99.90
41060;DHT22;26811;53.160;8.202;2023-05-07T20:42:58;12.90;99.90
41060;DHT22;26811;53.160;8.202;2023-05-07T20:47:59;12.80;99.90
41060;DHT22;26811;53.160;8.202;2023-05-07T20:52:59;12.80;99.90
41060;DHT22;26811;53.160;8.202;2023-05-07T20:58:00;12.70;99.90
41060;DHT22;26811;53.160;8.202;2023-05-07T21:03:00;12.70;99.90
41060;DHT22;26811;53.160;8.202;2023-05-07T21:08:02;12.60;99.90
41060;DHT22;26811;53.160;8.202;2023-05-07T21:13:04;12.60;99.90
41060;DHT22;26811;53.160;8.202;2023-05-07T21:18:05;12.60;99.90
41060;DHT22;26811;53.160;8.202;2023-05-07T21:23:05;12.50;99.90
41060;DHT22;26811;53.160;8.202;2023-05-07T21:28:07;12.50;99.90
41060;DHT22;26811;53.160;8.202;2023-05-07T21:33:08;12.40;99.90
41060;DHT22;26811;53.160;8.202;2023-05-07T21:38:08;12.30;99.90
41060;DHT22;26811;53.160;8.202;2023-05-07T21:43:09;12.30;99.90
41060;DHT22;26811;53.160;8.202;2023-05-07T21:48:11;12.20;99.90
41060;DHT22;26811;53.160;8.202;2023-05-07T21:53:13;12.20;99.90
41060;DHT22;26811;53.160;8.202;2023-05-07T21:58:13;12.10;99.90
41060;DHT22;26811;53.160;8.202;2023-05-07T22:03:14;12.10;99.90
41060;DHT22;26811;53.160;8.202;2023-05-07T22:08:14;12.00;99.90
41060;DHT22;26811;53.160;8.202;2023-05-07T22:13:15;12.00;99.90
41060;DHT22;26811;53.160;8.202;2023-05-07T22:18:16;11.90;99.90
41060;DHT22;26811;53.160;8.202;2023-05-07T22:23:16;11.90;99.90
41060;DHT22;26811;53.160;8.202;2023-05-07T22:28:17;11.90;99.90
41060;DHT22;26811;53.160;8.202;2023-05-07T22:33:17;11.90;99.90
41060;DHT22;26811;53.160;8.202;2023-05-07T22:38:18;11.80;99.90
41060;DHT22;26811;53.160;8.202;2023-05-07T22:43:18;11.80;99.90
41060;DHT22;26811;53.160;8.202;2023-05-07T22:48:19;11.80;99.90
41060;DHT22;26811;53.160;8.202;2023-05-07T22:53:20;11.70;99.90
41060;DHT22;26811;53.160;8.202;2023-05-07T22:58:21;11.60;99.90
41060;DHT22;26811;53.160;8.202;2023-05-07T23:03:21;11.50;99.90
41060;DHT22;26811;53.160;8.202;2023-05-07T23:08:22;11.50;99.90
41060;DHT22;26811;53.160;8.202;2023-05-07T23:13:22;11.40;99.90
41060;DHT22;26811;53.160;8.202;2023-05-07T23:18:23;11.30;99.90
41060;DHT22;26811;53.160;8.202;2023-05-07T23:23:27;11.10;99.90
41060;DHT22;26811;53.160;8.202;2023-05-07T23:28:32;11.00;99.90
41060;DHT22;26811;53.160;8.202;2023-05-07T23:33:33;11.00;99.90
41060;DHT22;26811;53.160;8.202;2023-05-07T23:38:34;10.90;99.90
41060;DHT22;26811;53.160;8.202;2023-05-07T23:43:37;10.90;99.90
41060;DHT22;26811;53.160;8.202;2023-05-07T23:48:38;10.80;99.90
41060;DHT22;26811;53.160;8.202;2023-05-07T23:53:38;10.80;99.90
41060;DHT22;26811;53.160;8.202;2023-05-07T23:58:42;10.70;99.90
